Estación Meteorológica Peña el Pijo (Robertgarden) [ 06/25/18 14:04:46 CEST ]

Fecha Hora Presion(HPa) Temp (°C) Humedad % Rocio (°C) Viento ( m/s) Direccion Lluvia 1Hora(mm) Lluvia 24H(mm) LLuvia Total(mm)
2018-Jun-22 01:01:37 1012.900 13.9 61 6.5         266.25
2018-Jun-22 02:01:49 1012.700 13.1 66 6.8         266.25
2018-Jun-22 03:01:58 1012.100 12.2 70 6.9         266.25
2018-Jun-22 04:01:44 1012.100 11.8 72 6.9         266.25
2018-Jun-22 05:01:38 1011.900 11.3 74 6.8         266.25
2018-Jun-22 06:01:40 1012.000 10.8 76 6.7         266.25
2018-Jun-22 07:01:41 1012.300 10.3 78 6.6         266.25
2018-Jun-22 08:01:44 1012.300 12.9 80 9.5         266.25
2018-Jun-22 09:01:43 1012.300 19.4 64 12.4         266.25
2018-Jun-22 10:01:38 1012.000 25.6 48 13.8         266.25
2018-Jun-22 11:01:39 1012.000 28.1 33 10.2 1.8 S     266.25
2018-Jun-22 12:01:42 1011.800 29.9 30 10.5         266.25
2018-Jun-22 13:01:41 1011.800 31.2 27 9.8         266.25
2018-Jun-22 14:01:45 1011.300 31.3 26 9.3         266.25
2018-Jun-22 15:01:44 1011.000 31.2 27 9.8         266.25
2018-Jun-22 16:01:46 1010.700 32.9 24 9.4 2.5 SSW     266.25
2018-Jun-22 17:01:50 1010.400 32.3 25 9.5 3.0 NW     266.25
2018-Jun-22 18:01:55 1010.300 30.9 25 8.4         266.25
2018-Jun-22 19:02:00 1010.300 30.4 28 9.7         266.25
2018-Jun-22 20:01:57 1010.400 28.1 31 9.3         266.25
2018-Jun-22 21:01:48 1011.000 24.7 32 6.9         266.25
2018-Jun-22 22:01:47 1011.600 21.8 38 6.8         266.25
2018-Jun-22 23:01:49 1012.000 19.4 47 7.8         266.25

Temperatura Máxima:32°    Temperatura Mínima:10°
Presión Máxima:1012.900 Hpa    Presión Mínima:1010.300 Hpa


Volver